Mendon - 24 Hour Table
Date & TimeSolar
Radiation
(W/m²)
Wind
Speed
(mph)
Wind
Direction
(degrees)
Air
Temperature
(°F)
Relative
Humidity
(%)
Precipitation
(inches)
2020/09/25 05:00 2 0.0 302 46.7 77 0.00
2020/09/25 04:00 2 0.0 301 48.0 72 0.00
2020/09/25 03:00 2 0.0 64 50.1 71 0.00
2020/09/25 02:00 2 0.0 290 52.5 62 0.00
2020/09/25 01:00 2 0.0 302 56.3 58 0.00
2020/09/25 00:00 3 0.1 338 63.7 45 0.00
2020/09/24 23:00 3 0.8 339 66.1 29 0.00
2020/09/24 22:00 3 0.3 305 59.7 28 0.00
2020/09/24 21:00 3 0.3 206 64.1 43 0.00
2020/09/24 20:00 3 0.0 291 60.9 35 0.00
2020/09/24 19:00 5 0.0 226 65.1 37 0.00
2020/09/24 18:00 32 0.0 181 70.5 29 0.00
2020/09/24 17:00 77 0.0 269 77.5 30 0.00
2020/09/24 16:00 153 0.3 155 79.9 18 0.00
2020/09/24 15:00 193 0.6 21 81.1 14 0.00
2020/09/24 14:00 718 1.2 145 82.1 14 0.00
2020/09/24 13:00 828 1.0 144 82.5 16 0.00
2020/09/24 12:00 820 0.6 147 80.0 19 0.00
2020/09/24 11:00 736 0.2 340 71.2 37 0.00
2020/09/24 10:00 583 0.4 33 63.6 49 0.00
2020/09/24 09:00 322 0.3 109 57.6 60 0.00
2020/09/24 08:00 57 0.3 116 50.8 61 0.00
2020/09/24 07:00 11 0.0 292 47.6 72 0.00
2020/09/24 06:00 2 0.0 287 48.2 68 0.00